sensor_id;sensor_type;location;lat;lon;timestamp;pressure;altitude;pressure_sealevel;temperature;humidity
83633;BME280;73595;53.084;6.696;2024-03-23T00:56:05;100959.56;;;5.49;98.73
83633;BME280;73595;53.084;6.696;2024-03-23T00:58:30;100984.66;;;5.63;98.89
83633;BME280;73595;53.084;6.696;2024-03-23T01:00:55;100959.00;;;5.46;98.79
83633;BME280;73595;53.084;6.696;2024-03-23T01:03:21;100958.47;;;5.52;99.04
83633;BME280;73595;53.084;6.696;2024-03-23T01:05:46;100970.38;;;5.56;99.15
83633;BME280;73595;53.084;6.696;2024-03-23T01:08:12;100946.66;;;5.36;99.07
83633;BME280;73595;53.084;6.696;2024-03-23T01:10:38;100964.56;;;5.52;99.27
83633;BME280;73595;53.084;6.696;2024-03-23T01:13:04;100956.81;;;5.51;99.29
83633;BME280;73595;53.084;6.696;2024-03-23T01:15:29;100954.72;;;5.44;98.97
83633;BME280;73595;53.084;6.696;2024-03-23T01:17:55;100952.22;;;5.43;99.23
83633;BME280;73595;53.084;6.696;2024-03-23T01:20:20;100945.41;;;5.40;99.30
83633;BME280;73595;53.084;6.696;2024-03-23T01:22:45;100926.03;;;5.22;99.34
83633;BME280;73595;53.084;6.696;2024-03-23T01:25:11;100946.50;;;5.28;99.65
83633;BME280;73595;53.084;6.696;2024-03-23T01:27:36;100942.34;;;5.26;99.62
83633;BME280;73595;53.084;6.696;2024-03-23T01:30:01;100944.97;;;5.26;99.53
83633;BME280;73595;53.084;6.696;2024-03-23T01:32:27;100939.53;;;5.18;99.89
83633;BME280;73595;53.084;6.696;2024-03-23T01:34:52;100845.16;;;4.55;99.77
83633;BME280;73595;53.084;6.696;2024-03-23T01:37:17;100911.41;;;4.99;99.98
83633;BME280;73595;53.084;6.696;2024-03-23T01:39:43;100934.44;;;5.16;100.00
83633;BME280;73595;53.084;6.696;2024-03-23T01:42:08;100927.91;;;5.10;100.00
83633;BME280;73595;53.084;6.696;2024-03-23T01:44:33;100927.91;;;5.10;100.00
83633;BME280;73595;53.084;6.696;2024-03-23T01:46:59;100921.81;;;5.10;100.00
83633;BME280;73595;53.084;6.696;2024-03-23T01:49:25;100898.53;;;4.96;100.00
83633;BME280;73595;53.084;6.696;2024-03-23T01:51:51;100912.53;;;5.06;100.00
83633;BME280;73595;53.084;6.696;2024-03-23T01:54:16;100900.22;;;4.97;100.00
83633;BME280;73595;53.084;6.696;2024-03-23T01:56:42;100897.31;;;5.00;100.00
83633;BME280;73595;53.084;6.696;2024-03-23T01:59:07;100899.38;;;4.96;100.00
83633;BME280;73595;53.084;6.696;2024-03-23T02:01:34;100896.47;;;4.89;100.00
83633;BME280;73595;53.084;6.696;2024-03-23T02:04:01;100847.84;;;4.65;100.00
83633;BME280;73595;53.084;6.696;2024-03-23T02:06:27;100874.88;;;4.86;100.00
83633;BME280;73595;53.084;6.696;2024-03-23T02:08:53;100878.31;;;4.86;100.00
83633;BME280;73595;53.084;6.696;2024-03-23T02:11:18;100881.09;;;4.85;100.00
83633;BME280;73595;53.084;6.696;2024-03-23T02:13:44;100873.34;;;4.83;100.00
83633;BME280;73595;53.084;6.696;2024-03-23T02:16:09;100870.72;;;4.83;100.00
83633;BME280;73595;53.084;6.696;2024-03-23T02:18:35;100863.25;;;4.79;100.00
83633;BME280;73595;53.084;6.696;2024-03-23T02:21:00;100859.78;;;4.78;100.00
83633;BME280;73595;53.084;6.696;2024-03-23T02:23:26;100866.09;;;4.76;100.00
83633;BME280;73595;53.084;6.696;2024-03-23T02:25:52;100867.22;;;4.73;100.00
83633;BME280;73595;53.084;6.696;2024-03-23T02:28:19;100870.13;;;4.70;100.00
83633;BME280;73595;53.084;6.696;2024-03-23T02:30:44;100866.06;;;4.66;100.00
83633;BME280;73595;53.084;6.696;2024-03-23T02:33:10;100860.00;;;4.66;100.00
83633;BME280;73595;53.084;6.696;2024-03-23T02:35:36;100860.81;;;4.66;100.00
83633;BME280;73595;53.084;6.696;2024-03-23T02:38:02;100841.31;;;4.59;100.00
83633;BME280;73595;53.084;6.696;2024-03-23T02:40:28;100843.66;;;4.62;100.00
83633;BME280;73595;53.084;6.696;2024-03-23T02:42:53;100846.28;;;4.62;100.00
83633;BME280;73595;53.084;6.696;2024-03-23T02:45:19;100847.53;;;4.58;100.00
83633;BME280;73595;53.084;6.696;2024-03-23T02:47:44;100827.59;;;4.46;100.00
83633;BME280;73595;53.084;6.696;2024-03-23T02:50:09;100839.91;;;4.55;100.00
83633;BME280;73595;53.084;6.696;2024-03-23T02:52:36;100828.88;;;4.51;100.00
83633;BME280;73595;53.084;6.696;2024-03-23T02:55:02;100842.69;;;4.53;100.00
83633;BME280;73595;53.084;6.696;2024-03-23T02:57:28;100834.22;;;4.50;100.00
83633;BME280;73595;53.084;6.696;2024-03-23T02:59:53;100831.72;;;4.48;100.00
83633;BME280;73595;53.084;6.696;2024-03-23T03:02:19;100839.22;;;4.53;100.00
83633;BME280;73595;53.084;6.696;2024-03-23T03:04:44;100801.28;;;4.36;100.00
83633;BME280;73595;53.084;6.696;2024-03-23T03:07:10;100816.38;;;4.44;100.00
83633;BME280;73595;53.084;6.696;2024-03-23T03:09:35;100813.75;;;4.44;100.00
83633;BME280;73595;53.084;6.696;2024-03-23T03:12:04;100838.13;;;4.55;100.00
83633;BME280;73595;53.084;6.696;2024-03-23T03:14:29;100831.06;;;4.56;100.00
83633;BME280;73595;53.084;6.696;2024-03-23T03:16:54;100829.28;;;4.56;100.00
83633;BME280;73595;53.084;6.696;2024-03-23T03:19:20;100816.69;;;4.50;100.00
83633;BME280;73595;53.084;6.696;2024-03-23T03:21:45;100797.84;;;4.35;100.00
83633;BME280;73595;53.084;6.696;2024-03-23T03:24:10;100792.88;;;4.32;100.00
83633;BME280;73595;53.084;6.696;2024-03-23T03:26:36;100799.63;;;4.35;100.00
83633;BME280;73595;53.084;6.696;2024-03-23T03:29:02;100786.72;;;4.22;100.00
83633;BME280;73595;53.084;6.696;2024-03-23T03:31:27;100798.22;;;4.31;100.00
83633;BME280;73595;53.084;6.696;2024-03-23T03:33:53;100814.41;;;4.36;100.00
83633;BME280;73595;53.084;6.696;2024-03-23T03:36:18;100814.41;;;4.36;100.00
83633;BME280;73595;53.084;6.696;2024-03-23T03:38:44;100811.22;;;4.32;100.00
83633;BME280;73595;53.084;6.696;2024-03-23T03:41:09;100810.41;;;4.32;100.00
83633;BME280;73595;53.084;6.696;2024-03-23T03:43:35;100798.19;;;4.21;100.00
83633;BME280;73595;53.084;6.696;2024-03-23T03:46:01;100804.84;;;4.25;100.00
83633;BME280;73595;53.084;6.696;2024-03-23T03:48:27;100799.84;;;4.22;100.00
83633;BME280;73595;53.084;6.696;2024-03-23T03:50:52;100793.78;;;4.22;100.00
83633;BME280;73595;53.084;6.696;2024-03-23T03:53:18;100781.88;;;4.18;100.00
83633;BME280;73595;53.084;6.696;2024-03-23T03:55:44;100742.00;;;3.93;100.00
83633;BME280;73595;53.084;6.696;2024-03-23T03:58:09;100788.34;;;4.14;100.00
83633;BME280;73595;53.084;6.696;2024-03-23T04:00:35;100745.56;;;3.92;100.00
83633;BME280;73595;53.084;6.696;2024-03-23T04:03:01;100787.38;;;4.15;100.00
83633;BME280;73595;53.084;6.696;2024-03-23T04:05:26;100779.06;;;4.10;100.00
83633;BME280;73595;53.084;6.696;2024-03-23T04:07:52;100778.25;;;4.09;100.00
83633;BME280;73595;53.084;6.696;2024-03-23T04:10:17;100767.16;;;4.05;100.00
83633;BME280;73595;53.084;6.696;2024-03-23T04:12:43;100763.31;;;4.00;100.00
83633;BME280;73595;53.084;6.696;2024-03-23T04:15:09;100771.84;;;4.02;100.00
83633;BME280;73595;53.084;6.696;2024-03-23T04:17:34;100777.09;;;4.02;100.00
83633;BME280;73595;53.084;6.696;2024-03-23T04:20:00;100773.78;;;4.00;100.00
83633;BME280;73595;53.084;6.696;2024-03-23T04:22:26;100756.69;;;3.85;100.00
83633;BME280;73595;53.084;6.696;2024-03-23T04:24:56;100775.56;;;3.99;100.00
83633;BME280;73595;53.084;6.696;2024-03-23T04:27:25;100762.84;;;3.95;100.00
83633;BME280;73595;53.084;6.696;2024-03-23T04:29:51;100763.69;;;3.95;100.00
83633;BME280;73595;53.084;6.696;2024-03-23T04:32:16;100770.44;;;3.98;100.00
83633;BME280;73595;53.084;6.696;2024-03-23T04:34:43;100756.84;;;3.83;100.00
83633;BME280;73595;53.084;6.696;2024-03-23T04:37:09;100756.47;;;3.88;100.00
83633;BME280;73595;53.084;6.696;2024-03-23T04:39:36;100770.94;;;3.92;100.00
83633;BME280;73595;53.084;6.696;2024-03-23T04:42:01;100762.41;;;3.90;99.98
83633;BME280;73595;53.084;6.696;2024-03-23T04:44:26;100728.06;;;3.72;100.00
83633;BME280;73595;53.084;6.696;2024-03-23T04:46:52;100760.59;;;3.90;99.93
83633;BME280;73595;53.084;6.696;2024-03-23T04:49:17;100725.84;;;3.67;99.80
83633;BME280;73595;53.084;6.696;2024-03-23T04:51:42;100759.09;;;3.88;99.96
83633;BME280;73595;53.084;6.696;2024-03-23T04:54:11;100754.53;;;3.90;99.94
83633;BME280;73595;53.084;6.696;2024-03-23T04:56:37;100746.66;;;3.90;100.00
83633;BME280;73595;53.084;6.696;2024-03-23T04:59:02;100715.38;;;3.67;100.00
83633;BME280;73595;53.084;6.696;2024-03-23T05:01:30;100754.66;;;3.88;100.00
83633;BME280;73595;53.084;6.696;2024-03-23T05:03:56;100738.94;;;3.88;99.98
83633;BME280;73595;53.084;6.696;2024-03-23T05:06:22;100745.00;;;3.89;99.58
83633;BME280;73595;53.084;6.696;2024-03-23T05:08:47;100729.63;;;3.74;99.81
83633;BME280;73595;53.084;6.696;2024-03-23T05:11:12;100740.84;;;3.86;99.65
83633;BME280;73595;53.084;6.696;2024-03-23T05:13:38;100740.16;;;3.84;99.98
83633;BME280;73595;53.084;6.696;2024-03-23T05:16:03;100743.59;;;3.85;99.74
83633;BME280;73595;53.084;6.696;2024-03-23T05:18:29;100735.50;;;3.88;99.57
83633;BME280;73595;53.084;6.696;2024-03-23T05:20:58;100720.78;;;3.75;99.58
83633;BME280;73595;53.084;6.696;2024-03-23T05:23:25;100738.50;;;3.83;99.89
83633;BME280;73595;53.084;6.696;2024-03-23T05:25:51;100722.00;;;3.71;99.72
83633;BME280;73595;53.084;6.696;2024-03-23T05:28:17;100746.50;;;3.82;99.53
83633;BME280;73595;53.084;6.696;2024-03-23T05:30:43;100721.44;;;3.68;99.88
83633;BME280;73595;53.084;6.696;2024-03-23T05:33:08;100718.38;;;3.63;99.89
83633;BME280;73595;53.084;6.696;2024-03-23T05:35:33;100729.16;;;3.69;99.92
83633;BME280;73595;53.084;6.696;2024-03-23T05:37:59;100738.88;;;3.78;100.00
83633;BME280;73595;53.084;6.696;2024-03-23T05:40:26;100728.97;;;3.82;99.98
83633;BME280;73595;53.084;6.696;2024-03-23T05:42:51;100715.09;;;3.70;99.78
83633;BME280;73595;53.084;6.696;2024-03-23T05:45:21;100732.03;;;3.87;99.85
83633;BME280;73595;53.084;6.696;2024-03-23T05:47:48;100737.97;;;3.89;99.89
83633;BME280;73595;53.084;6.696;2024-03-23T05:50:13;100732.28;;;3.84;99.71
83633;BME280;73595;53.084;6.696;2024-03-23T05:52:39;100729.81;;;3.83;99.99
83633;BME280;73595;53.084;6.696;2024-03-23T05:55:06;100749.75;;;3.95;99.27
83633;BME280;73595;53.084;6.696;2024-03-23T05:57:31;100740.22;;;3.94;99.56
83633;BME280;73595;53.084;6.696;2024-03-23T05:59:57;100689.19;;;3.67;99.35
83633;BME280;73595;53.084;6.696;2024-03-23T06:02:23;100740.78;;;3.97;99.58
83633;BME280;73595;53.084;6.696;2024-03-23T06:04:48;100698.88;;;3.76;99.26
83633;BME280;73595;53.084;6.696;2024-03-23T06:07:14;100721.41;;;3.89;99.23
83633;BME280;73595;53.084;6.696;2024-03-23T06:09:40;100743.72;;;4.04;99.29
83633;BME280;73595;53.084;6.696;2024-03-23T06:12:06;100740.72;;;4.08;99.11
83633;BME280;73595;53.084;6.696;2024-03-23T06:14:31;100742.53;;;4.18;98.83
83633;BME280;73595;53.084;6.696;2024-03-23T06:16:58;100725.31;;;4.25;98.63
83633;BME280;73595;53.084;6.696;2024-03-23T06:19:24;100752.06;;;4.49;98.91
83633;BME280;73595;53.084;6.696;2024-03-23T06:21:52;100742.28;;;4.51;98.35
83633;BME280;73595;53.084;6.696;2024-03-23T06:24:17;100752.88;;;4.50;97.84
83633;BME280;73595;53.084;6.696;2024-03-23T06:26:43;100735.59;;;4.38;97.86
83633;BME280;73595;53.084;6.696;2024-03-23T06:29:08;100725.06;;;4.28;96.86
83633;BME280;73595;53.084;6.696;2024-03-23T06:31:34;100756.19;;;4.42;96.85
83633;BME280;73595;53.084;6.696;2024-03-23T06:33:59;100759.91;;;4.40;96.66
83633;BME280;73595;53.084;6.696;2024-03-23T06:36:26;100746.94;;;4.38;96.75
83633;BME280;73595;53.084;6.696;2024-03-23T06:38:52;100748.44;;;4.41;96.54
83633;BME280;73595;53.084;6.696;2024-03-23T06:41:18;100699.91;;;4.16;96.59
83633;BME280;73595;53.084;6.696;2024-03-23T06:43:44;100733.97;;;4.46;96.08
83633;BME280;73595;53.084;6.696;2024-03-23T06:46:09;100736.66;;;4.66;95.67
83633;BME280;73595;53.084;6.696;2024-03-23T06:48:34;100745.97;;;4.89;95.62
83633;BME280;73595;53.084;6.696;2024-03-23T06:51:00;100747.06;;;4.86;96.22
83633;BME280;73595;53.084;6.696;2024-03-23T06:53:25;100738.13;;;4.49;96.38
83633;BME280;73595;53.084;6.696;2024-03-23T06:55:52;100715.09;;;4.22;96.65
83633;BME280;73595;53.084;6.696;2024-03-23T06:58:22;100733.31;;;4.23;96.38
83633;BME280;73595;53.084;6.696;2024-03-23T07:00:47;100696.81;;;4.01;96.87
83633;BME280;73595;53.084;6.696;2024-03-23T07:03:13;100727.91;;;4.15;96.81
83633;BME280;73595;53.084;6.696;2024-03-23T07:05:38;100735.81;;;4.25;97.12
83633;BME280;73595;53.084;6.696;2024-03-23T07:08:04;100735.81;;;4.25;97.35
83633;BME280;73595;53.084;6.696;2024-03-23T07:10:29;100733.94;;;4.37;97.49
83633;BME280;73595;53.084;6.696;2024-03-23T07:12:55;100697.22;;;4.37;97.81
83633;BME280;73595;53.084;6.696;2024-03-23T07:15:20;100723.84;;;4.72;97.59
83633;BME280;73595;53.084;6.696;2024-03-23T07:17:48;100704.50;;;4.73;97.69
83633;BME280;73595;53.084;6.696;2024-03-23T07:20:14;100709.47;;;4.76;98.30
83633;BME280;73595;53.084;6.696;2024-03-23T07:22:39;100745.72;;;5.02;98.44
83633;BME280;73595;53.084;6.696;2024-03-23T07:25:05;100737.03;;;5.11;96.39
83633;BME280;73595;53.084;6.696;2024-03-23T07:27:31;100732.91;;;5.37;96.58
83633;BME280;73595;53.084;6.696;2024-03-23T07:29:56;100728.22;;;5.41;96.29
83633;BME280;73595;53.084;6.696;2024-03-23T07:32:22;100739.94;;;5.47;97.24
83633;BME280;73595;53.084;6.696;2024-03-23T07:34:47;100729.44;;;5.47;96.82
83633;BME280;73595;53.084;6.696;2024-03-23T07:37:13;100729.56;;;5.55;96.46
83633;BME280;73595;53.084;6.696;2024-03-23T07:39:41;100718.91;;;5.66;95.47
83633;BME280;73595;53.084;6.696;2024-03-23T07:42:07;100728.44;;;5.77;95.40
83633;BME280;73595;53.084;6.696;2024-03-23T07:44:32;100703.38;;;5.72;95.24
83633;BME280;73595;53.084;6.696;2024-03-23T07:47:00;100722.75;;;5.81;94.02
83633;BME280;73595;53.084;6.696;2024-03-23T07:49:25;100720.53;;;5.96;93.05
83633;BME280;73595;53.084;6.696;2024-03-23T07:51:51;100713.97;;;6.10;92.56
83633;BME280;73595;53.084;6.696;2024-03-23T07:54:16;100724.25;;;6.03;90.75
83633;BME280;73595;53.084;6.696;2024-03-23T07:56:41;100720.53;;;5.86;91.14
83633;BME280;73595;53.084;6.696;2024-03-23T07:59:07;100692.75;;;5.64;89.62
83633;BME280;73595;53.084;6.696;2024-03-23T08:01:32;100705.19;;;5.72;92.04
83633;BME280;73595;53.084;6.696;2024-03-23T08:03:57;100700.38;;;5.67;92.07
83633;BME280;73595;53.084;6.696;2024-03-23T08:06:23;100706.59;;;5.47;89.48
83633;BME280;73595;53.084;6.696;2024-03-23T08:08:51;100712.72;;;5.48;90.00
83633;BME280;73595;53.084;6.696;2024-03-23T08:11:25;100698.59;;;5.49;90.58
83633;BME280;73595;53.084;6.696;2024-03-23T08:13:50;100717.50;;;5.71;91.35
83633;BME280;73595;53.084;6.696;2024-03-23T08:16:16;100718.34;;;5.82;91.06
83633;BME280;73595;53.084;6.696;2024-03-23T08:18:41;100710.69;;;5.98;91.76
83633;BME280;73595;53.084;6.696;2024-03-23T08:21:07;100679.31;;;5.77;90.50
83633;BME280;73595;53.084;6.696;2024-03-23T08:23:35;100700.88;;;6.00;88.96
83633;BME280;73595;53.084;6.696;2024-03-23T08:26:06;100707.50;;;6.04;87.84
83633;BME280;73595;53.084;6.696;2024-03-23T08:28:31;100705.50;;;6.26;87.83
83633;BME280;73595;53.084;6.696;2024-03-23T08:31:00;100696.63;;;6.54;87.22
83633;BME280;73595;53.084;6.696;2024-03-23T08:33:26;100679.31;;;6.24;87.25
83633;BME280;73595;53.084;6.696;2024-03-23T08:35:58;100696.06;;;6.23;87.53
83633;BME280;73595;53.084;6.696;2024-03-23T08:38:24;100702.72;;;6.27;87.26
83633;BME280;73595;53.084;6.696;2024-03-23T08:41:03;100706.72;;;6.59;87.72
83633;BME280;73595;53.084;6.696;2024-03-23T08:43:30;100682.97;;;6.68;87.29
83633;BME280;73595;53.084;6.696;2024-03-23T08:46:12;100702.19;;;7.14;87.07
83633;BME280;73595;53.084;6.696;2024-03-23T08:48:39;100694.88;;;7.26;87.03
83633;BME280;73595;53.084;6.696;2024-03-23T08:51:07;100692.84;;;7.20;86.02
83633;BME280;73595;53.084;6.696;2024-03-23T08:53:33;100694.09;;;7.51;86.33
83633;BME280;73595;53.084;6.696;2024-03-23T08:55:59;100695.28;;;7.75;85.40
83633;BME280;73595;53.084;6.696;2024-03-23T08:58:28;100689.16;;;7.48;84.64
83633;BME280;73595;53.084;6.696;2024-03-23T09:00:55;100679.31;;;7.58;84.48
83633;BME280;73595;53.084;6.696;2024-03-23T09:03:24;100685.31;;;7.43;83.76
83633;BME280;73595;53.084;6.696;2024-03-23T09:05:49;100671.16;;;7.26;84.36
83633;BME280;73595;53.084;6.696;2024-03-23T09:08:15;100669.09;;;7.55;84.43
83633;BME280;73595;53.084;6.696;2024-03-23T09:10:41;100667.09;;;7.75;84.34
83633;BME280;73595;53.084;6.696;2024-03-23T09:13:06;100671.94;;;7.62;83.44
83633;BME280;73595;53.084;6.696;2024-03-23T09:15:36;100674.06;;;7.58;82.98
83633;BME280;73595;53.084;6.696;2024-03-23T09:18:02;100655.47;;;7.86;83.34
83633;BME280;73595;53.084;6.696;2024-03-23T09:20:28;100664.63;;;8.08;82.82
83633;BME280;73595;53.084;6.696;2024-03-23T09:22:53;100645.41;;;8.24;83.99
83633;BME280;73595;53.084;6.696;2024-03-23T09:25:18;100656.44;;;8.53;82.83
83633;BME280;73595;53.084;6.696;2024-03-23T09:27:48;100658.91;;;8.21;80.35
83633;BME280;73595;53.084;6.696;2024-03-23T09:30:14;100649.00;;;8.14;81.51
83633;BME280;73595;53.084;6.696;2024-03-23T09:32:43;100655.53;;;8.02;82.28
83633;BME280;73595;53.084;6.696;2024-03-23T09:35:09;100645.59;;;7.96;81.38
83633;BME280;73595;53.084;6.696;2024-03-23T09:37:35;100645.88;;;7.85;82.37
83633;BME280;73595;53.084;6.696;2024-03-23T09:40:00;100639.09;;;7.82;81.44
83633;BME280;73595;53.084;6.696;2024-03-23T09:42:26;100626.50;;;7.68;82.02
83633;BME280;73595;53.084;6.696;2024-03-23T09:44:52;100646.56;;;7.87;78.28
83633;BME280;73595;53.084;6.696;2024-03-23T09:47:18;100635.53;;;8.26;76.46
83633;BME280;73595;53.084;6.696;2024-03-23T09:49:43;100638.91;;;8.44;71.65
83633;BME280;73595;53.084;6.696;2024-03-23T09:52:09;100613.66;;;8.50;71.88
83633;BME280;73595;53.084;6.696;2024-03-23T09:54:35;100650.91;;;9.13;70.33
83633;BME280;73595;53.084;6.696;2024-03-23T09:57:00;100644.13;;;9.27;67.90
83633;BME280;73595;53.084;6.696;2024-03-23T09:59:26;100661.50;;;9.54;68.90
83633;BME280;73595;53.084;6.696;2024-03-23T10:01:52;100661.59;;;8.79;72.56
83633;BME280;73595;53.084;6.696;2024-03-23T10:07:15;100656.50;;;7.05;80.08
83633;BME280;73595;53.084;6.696;2024-03-23T10:09:42;100671.47;;;6.87;81.36
83633;BME280;73595;53.084;6.696;2024-03-23T10:12:12;100663.88;;;6.84;81.50
83633;BME280;73595;53.084;6.696;2024-03-23T10:14:41;100657.19;;;6.72;80.95
83633;BME280;73595;53.084;6.696;2024-03-23T10:19:46;100640.50;;;6.36;81.47
83633;BME280;73595;53.084;6.696;2024-03-23T10:22:17;100659.16;;;6.42;81.95
83633;BME280;73595;53.084;6.696;2024-03-23T10:24:43;100656.50;;;6.42;81.51
83633;BME280;73595;53.084;6.696;2024-03-23T10:27:08;100659.13;;;6.70;81.70
83633;BME280;73595;53.084;6.696;2024-03-23T10:29:33;100646.72;;;7.16;80.58
83633;BME280;73595;53.084;6.696;2024-03-23T10:32:09;100648.09;;;7.46;79.29
83633;BME280;73595;53.084;6.696;2024-03-23T10:34:35;100646.81;;;7.76;79.61
83633;BME280;73595;53.084;6.696;2024-03-23T10:37:02;100639.50;;;7.96;79.37
83633;BME280;73595;53.084;6.696;2024-03-23T10:39:30;100650.66;;;8.24;79.33
83633;BME280;73595;53.084;6.696;2024-03-23T10:41:56;100639.59;;;8.12;76.98
83633;BME280;73595;53.084;6.696;2024-03-23T10:44:22;100627.38;;;8.45;79.14
83633;BME280;73595;53.084;6.696;2024-03-23T10:46:51;100647.16;;;8.49;76.16
83633;BME280;73595;53.084;6.696;2024-03-23T10:49:24;100611.25;;;8.73;76.52
83633;BME280;73595;53.084;6.696;2024-03-23T10:51:51;100642.31;;;9.11;75.77
83633;BME280;73595;53.084;6.696;2024-03-23T10:54:17;100639.50;;;9.13;74.46
83633;BME280;73595;53.084;6.696;2024-03-23T10:56:43;100633.38;;;9.20;74.46
83633;BME280;73595;53.084;6.696;2024-03-23T10:59:09;100639.69;;;9.36;75.03
83633;BME280;73595;53.084;6.696;2024-03-23T11:01:35;100621.34;;;8.93;75.78
83633;BME280;73595;53.084;6.696;2024-03-23T11:04:29;100645.25;;;7.91;76.04
83633;BME280;73595;53.084;6.696;2024-03-23T11:06:55;100655.50;;;7.42;77.09
83633;BME280;73595;53.084;6.696;2024-03-23T11:09:38;100648.53;;;7.15;77.94
83633;BME280;73595;53.084;6.696;2024-03-23T11:14:52;100660.88;;;6.34;83.84
83633;BME280;73595;53.084;6.696;2024-03-23T11:17:18;100671.31;;;6.16;83.53
83633;BME280;73595;53.084;6.696;2024-03-23T11:20:13;100633.16;;;6.12;84.38
83633;BME280;73595;53.084;6.696;2024-03-23T11:25:25;100681.50;;;6.38;84.44
83633;BME280;73595;53.084;6.696;2024-03-23T11:27:53;100685.28;;;6.26;83.59
83633;BME280;73595;53.084;6.696;2024-03-23T11:30:22;100678.38;;;6.25;82.93
83633;BME280;73595;53.084;6.696;2024-03-23T11:32:57;100685.69;;;6.31;82.78
83633;BME280;73595;53.084;6.696;2024-03-23T11:40:34;100659.94;;;6.25;81.54
83633;BME280;73595;53.084;6.696;2024-03-23T11:43:01;100633.03;;;6.04;82.19
83633;BME280;73595;53.084;6.696;2024-03-23T11:45:28;100647.97;;;6.13;80.73
83633;BME280;73595;53.084;6.696;2024-03-23T11:50:30;100645.72;;;6.45;80.00
83633;BME280;73595;53.084;6.696;2024-03-23T11:53:19;100642.28;;;6.81;80.14
83633;BME280;73595;53.084;6.696;2024-03-23T11:55:58;100613.09;;;6.74;79.81
83633;BME280;73595;53.084;6.696;2024-03-23T11:58:25;100651.56;;;7.46;79.71
83633;BME280;73595;53.084;6.696;2024-03-23T12:01:01;100644.38;;;7.56;79.64
83633;BME280;73595;53.084;6.696;2024-03-23T12:03:27;100635.19;;;7.86;78.94
83633;BME280;73595;53.084;6.696;2024-03-23T12:06:01;100615.69;;;7.53;79.27
83633;BME280;73595;53.084;6.696;2024-03-23T12:08:34;100666.28;;;6.95;79.58
83633;BME280;73595;53.084;6.696;2024-03-23T12:11:11;100659.63;;;6.01;83.23
83633;BME280;73595;53.084;6.696;2024-03-23T12:13:37;100666.00;;;5.88;85.55
83633;BME280;73595;53.084;6.696;2024-03-23T12:16:29;100658.75;;;5.63;87.00
83633;BME280;73595;53.084;6.696;2024-03-23T12:19:04;100648.50;;;5.60;86.75
83633;BME280;73595;53.084;6.696;2024-03-23T12:21:30;100669.09;;;5.74;87.36
83633;BME280;73595;53.084;6.696;2024-03-23T12:23:55;100650.50;;;5.85;88.22
83633;BME280;73595;53.084;6.696;2024-03-23T12:26:21;100620.91;;;5.83;87.40
83633;BME280;73595;53.084;6.696;2024-03-23T12:28:47;100650.63;;;6.31;85.88
83633;BME280;73595;53.084;6.696;2024-03-23T12:31:13;100650.03;;;6.82;84.80
83633;BME280;73595;53.084;6.696;2024-03-23T12:33:38;100644.59;;;7.37;84.25
83633;BME280;73595;53.084;6.696;2024-03-23T12:36:04;100640.06;;;7.47;82.17
83633;BME280;73595;53.084;6.696;2024-03-23T12:38:29;100648.00;;;7.29;81.49
83633;BME280;73595;53.084;6.696;2024-03-23T12:40:55;100635.69;;;7.64;80.60
83633;BME280;73595;53.084;6.696;2024-03-23T12:43:20;100641.13;;;7.63;79.64
83633;BME280;73595;53.084;6.696;2024-03-23T12:45:49;100629.78;;;7.00;78.94
83633;BME280;73595;53.084;6.696;2024-03-23T12:48:15;100632.94;;;7.22;77.64
83633;BME280;73595;53.084;6.696;2024-03-23T12:50:41;100628.22;;;7.85;74.42
83633;BME280;73595;53.084;6.696;2024-03-23T12:53:06;100584.50;;;7.75;74.35
83633;BME280;73595;53.084;6.696;2024-03-23T12:55:31;100640.16;;;7.64;75.54
83633;BME280;73595;53.084;6.696;2024-03-23T12:57:57;100603.84;;;6.70;80.25
83633;BME280;73595;53.084;6.696;2024-03-23T13:00:22;100657.88;;;6.46;80.29
83633;BME280;73595;53.084;6.696;2024-03-23T13:02:47;100660.47;;;6.29;82.65
83633;BME280;73595;53.084;6.696;2024-03-23T13:05:13;100630.16;;;6.24;83.15
83633;BME280;73595;53.084;6.696;2024-03-23T13:07:38;100634.09;;;6.11;83.51
83633;BME280;73595;53.084;6.696;2024-03-23T13:10:05;100590.88;;;5.95;82.56
83633;BME280;73595;53.084;6.696;2024-03-23T13:12:30;100629.63;;;6.21;83.43
83633;BME280;73595;53.084;6.696;2024-03-23T13:14:56;100625.94;;;6.14;81.88
83633;BME280;73595;53.084;6.696;2024-03-23T13:17:21;100632.75;;;6.34;82.82
83633;BME280;73595;53.084;6.696;2024-03-23T13:19:46;100632.13;;;6.68;81.58
83633;BME280;73595;53.084;6.696;2024-03-23T13:22:12;100627.91;;;7.11;80.75
83633;BME280;73595;53.084;6.696;2024-03-23T13:24:37;100621.63;;;7.29;79.90
83633;BME280;73595;53.084;6.696;2024-03-23T13:27:03;100629.50;;;7.47;78.83
83633;BME280;73595;53.084;6.696;2024-03-23T13:29:32;100623.84;;;7.94;79.46
83633;BME280;73595;53.084;6.696;2024-03-23T13:31:59;100623.25;;;8.17;78.79
83633;BME280;73595;53.084;6.696;2024-03-23T13:34:25;100614.22;;;8.19;75.91
83633;BME280;73595;53.084;6.696;2024-03-23T13:36:50;100599.28;;;7.94;74.47
83633;BME280;73595;53.084;6.696;2024-03-23T13:39:15;100590.88;;;7.98;74.79
83633;BME280;73595;53.084;6.696;2024-03-23T13:41:43;100599.22;;;8.28;76.08
83633;BME280;73595;53.084;6.696;2024-03-23T13:44:12;100609.25;;;8.24;76.19
83633;BME280;73595;53.084;6.696;2024-03-23T13:46:39;100602.13;;;8.08;75.70
83633;BME280;73595;53.084;6.696;2024-03-23T13:49:05;100609.38;;;7.72;76.55
83633;BME280;73595;53.084;6.696;2024-03-23T13:51:31;100586.63;;;8.05;76.30
83633;BME280;73595;53.084;6.696;2024-03-23T13:53:57;100599.69;;;8.23;74.35
83633;BME280;73595;53.084;6.696;2024-03-23T13:56:23;100596.69;;;8.68;74.52
83633;BME280;73595;53.084;6.696;2024-03-23T13:58:48;100604.50;;;8.78;73.15
83633;BME280;73595;53.084;6.696;2024-03-23T14:01:15;100606.13;;;8.79;75.47
83633;BME280;73595;53.084;6.696;2024-03-23T14:03:41;100617.13;;;8.42;77.15
83633;BME280;73595;53.084;6.696;2024-03-23T14:06:07;100614.19;;;7.51;79.88
83633;BME280;73595;53.084;6.696;2024-03-23T14:08:34;100625.28;;;6.57;82.86